createdAt,value
2023-11-23T00:01:38.659Z,6.93
2023-11-23T00:04:05.813Z,7.78
2023-11-23T00:06:32.820Z,6.68
2023-11-23T00:08:59.786Z,6.97
2023-11-23T00:11:26.727Z,7.20
2023-11-23T00:13:53.610Z,7.47
2023-11-23T00:16:20.499Z,7.88
2023-11-23T00:18:47.488Z,8.23
2023-11-23T00:21:14.488Z,12.55
2023-11-23T00:23:41.403Z,13.38
2023-11-23T00:26:08.364Z,9.32
2023-11-23T00:28:35.237Z,7.38
2023-11-23T00:31:02.176Z,7.78
2023-11-23T00:33:29.165Z,7.78
2023-11-23T00:35:56.188Z,7.85
2023-11-23T00:38:23.107Z,7.47
2023-11-23T00:40:49.999Z,7.80
2023-11-23T00:43:16.897Z,8.00
2023-11-23T00:45:43.818Z,8.07
2023-11-23T00:48:10.829Z,8.68
2023-11-23T00:50:37.805Z,8.23
2023-11-23T00:53:04.735Z,8.98
2023-11-23T00:55:31.641Z,8.25
2023-11-23T00:57:58.504Z,8.00
2023-11-23T01:00:25.528Z,7.22
2023-11-23T01:02:52.601Z,7.55
2023-11-23T01:05:19.720Z,7.38
2023-11-23T01:07:46.619Z,7.38
2023-11-23T01:10:13.764Z,6.53
2023-11-23T01:12:40.641Z,6.82
2023-11-23T01:15:08.390Z,7.07
2023-11-23T01:17:35.336Z,6.82
2023-11-23T01:20:02.306Z,6.80
2023-11-23T01:22:29.241Z,6.55
2023-11-23T01:24:56.199Z,7.05
2023-11-23T01:27:23.099Z,7.07
2023-11-23T01:29:50.102Z,8.10
2023-11-23T01:32:16.998Z,7.10
2023-11-23T01:34:43.970Z,7.28
2023-11-23T01:37:10.858Z,7.22
2023-11-23T01:39:37.820Z,6.53
2023-11-23T01:42:05.017Z,7.97
2023-11-23T01:44:31.957Z,8.35
2023-11-23T01:46:58.888Z,8.57
2023-11-23T01:49:25.894Z,7.85
2023-11-23T01:51:52.903Z,7.18
2023-11-23T01:54:19.883Z,7.43
2023-11-23T01:56:48.484Z,7.82
2023-11-23T01:59:15.495Z,7.88
2023-11-23T02:01:42.803Z,7.93
2023-11-23T02:04:10.408Z,7.50
2023-11-23T02:06:37.756Z,7.32
2023-11-23T02:09:05.129Z,8.13
2023-11-23T02:11:32.077Z,7.68
2023-11-23T02:13:58.985Z,7.72
2023-11-23T02:16:26.027Z,8.35
2023-11-23T02:18:52.981Z,11.55
2023-11-23T02:21:19.921Z,10.57
2023-11-23T02:23:46.873Z,9.65
2023-11-23T02:26:13.835Z,9.38
2023-11-23T02:28:40.717Z,9.25
2023-11-23T02:31:07.716Z,8.00
2023-11-23T02:33:34.804Z,7.63
2023-11-23T02:36:01.888Z,7.85
2023-11-23T02:38:28.814Z,7.90
2023-11-23T02:40:55.806Z,7.93
2023-11-23T02:43:22.737Z,8.88
2023-11-23T02:45:49.725Z,8.23
2023-11-23T02:48:16.753Z,8.57
2023-11-23T02:50:43.861Z,8.68
2023-11-23T02:53:10.806Z,7.57
2023-11-23T02:55:37.797Z,7.68
2023-11-23T02:58:04.745Z,7.22
2023-11-23T03:00:31.693Z,8.20
2023-11-23T03:02:58.655Z,7.45
2023-11-23T03:05:25.646Z,7.10
2023-11-23T03:07:52.634Z,8.23
2023-11-23T03:10:19.621Z,7.35
2023-11-23T03:12:46.522Z,7.13
2023-11-23T03:15:13.498Z,7.50
2023-11-23T03:17:40.535Z,7.35
2023-11-23T03:20:08.125Z,7.18
2023-11-23T03:22:35.066Z,7.50
2023-11-23T03:25:02.044Z,8.10
2023-11-23T03:27:29.006Z,8.25
2023-11-23T03:29:56.102Z,7.57
2023-11-23T03:32:23.006Z,8.20
2023-11-23T03:34:49.964Z,7.68
2023-11-23T03:37:16.954Z,7.82
2023-11-23T03:39:43.888Z,8.18
2023-11-23T03:42:10.834Z,7.70
2023-11-23T03:44:37.721Z,7.85
2023-11-23T03:47:05.103Z,7.50
2023-11-23T03:49:32.015Z,8.07
2023-11-23T03:51:58.949Z,7.75
2023-11-23T03:54:26.009Z,8.80
2023-11-23T03:56:52.988Z,7.32
2023-11-23T03:59:19.988Z,7.43
2023-11-23T04:01:48.080Z,7.72
2023-11-23T04:04:15.280Z,7.43
2023-11-23T04:06:42.314Z,6.97
2023-11-23T04:09:09.383Z,6.50
2023-11-23T04:11:36.363Z,6.90
2023-11-23T04:14:03.339Z,6.60
2023-11-23T04:16:30.246Z,6.32
2023-11-23T04:18:57.210Z,6.85
2023-11-23T04:21:24.155Z,6.85
2023-11-23T04:23:51.127Z,6.85
2023-11-23T04:26:18.139Z,7.30
2023-11-23T04:28:45.093Z,7.68
2023-11-23T04:31:12.049Z,10.27
2023-11-23T04:33:39.199Z,8.65
2023-11-23T04:36:06.462Z,11.75
2023-11-23T04:38:33.453Z,8.07
2023-11-23T04:41:01.395Z,7.30
2023-11-23T04:43:28.341Z,6.97
2023-11-23T04:45:55.280Z,6.93
2023-11-23T04:48:22.271Z,6.40
2023-11-23T04:50:49.316Z,6.50
2023-11-23T04:53:16.214Z,5.90
2023-11-23T04:55:43.124Z,6.07
2023-11-23T04:58:10.043Z,6.25
2023-11-23T05:00:37.304Z,6.47
2023-11-23T05:03:04.424Z,6.25
2023-11-23T05:05:31.390Z,6.55
2023-11-23T05:07:58.347Z,6.28
2023-11-23T05:10:25.323Z,7.40
2023-11-23T05:12:52.327Z,7.43
2023-11-23T05:15:19.384Z,6.75
2023-11-23T05:17:46.562Z,8.25
2023-11-23T05:20:13.585Z,6.90
2023-11-23T05:22:40.535Z,7.22
2023-11-23T05:25:08.033Z,6.60
2023-11-23T05:27:35.024Z,7.28
2023-11-23T05:30:02.046Z,7.65
2023-11-23T05:32:29.045Z,6.80
2023-11-23T05:34:56.001Z,6.70
2023-11-23T05:37:22.931Z,6.40
2023-11-23T05:39:50.131Z,6.70
2023-11-23T05:42:17.148Z,7.30
2023-11-23T05:44:44.082Z,6.57
2023-11-23T05:47:11.055Z,7.03
2023-11-23T05:49:38.134Z,7.45
2023-11-23T05:52:05.679Z,7.60
2023-11-23T05:54:32.714Z,6.43
2023-11-23T05:56:59.706Z,5.68
2023-11-23T05:59:26.670Z,5.38
2023-11-23T06:01:53.606Z,5.18
2023-11-23T06:04:20.734Z,5.55
2023-11-23T06:06:47.725Z,5.43
2023-11-23T06:09:14.724Z,5.22
2023-11-23T06:11:41.657Z,5.03
2023-11-23T06:14:13.696Z,4.90
2023-11-23T06:16:45.606Z,5.30
2023-11-23T06:19:12.669Z,5.18
2023-11-23T06:21:39.593Z,5.10
2023-11-23T06:24:07.569Z,4.95
2023-11-23T06:26:34.566Z,4.68
2023-11-23T06:29:01.570Z,4.55
2023-11-23T06:31:28.563Z,4.90
2023-11-23T06:33:55.619Z,4.85
2023-11-23T06:36:22.591Z,4.80
2023-11-23T06:38:49.678Z,5.40
2023-11-23T06:41:21.278Z,4.85
2023-11-23T06:43:49.892Z,4.63
2023-11-23T06:46:20.829Z,5.50
2023-11-23T06:48:47.986Z,5.30
2023-11-23T06:51:15.149Z,5.70
2023-11-23T06:53:42.254Z,5.07
2023-11-23T06:56:16.834Z,4.47
2023-11-23T06:58:47.405Z,5.20
2023-11-23T07:01:14.530Z,5.15
2023-11-23T07:03:41.732Z,5.25
2023-11-23T07:06:09.033Z,4.97
2023-11-23T07:08:36.675Z,5.25
2023-11-23T07:11:04.131Z,5.13
2023-11-23T07:13:31.863Z,4.78
2023-11-23T07:15:59.567Z,6.00
2023-11-23T07:18:30.221Z,5.13
2023-11-23T07:20:57.325Z,5.45
2023-11-23T07:23:24.286Z,5.18
2023-11-23T07:25:51.344Z,4.97
2023-11-23T07:28:18.343Z,5.63
2023-11-23T07:30:45.609Z,5.88
2023-11-23T07:33:12.779Z,5.47
2023-11-23T07:35:39.848Z,5.72
2023-11-23T07:38:06.939Z,5.75
2023-11-23T07:40:33.881Z,5.78
2023-11-23T07:43:00.873Z,5.82
2023-11-23T07:45:27.818Z,5.50
2023-11-23T07:47:54.862Z,5.10
2023-11-23T07:50:21.859Z,5.00
2023-11-23T07:52:48.741Z,4.40
2023-11-23T07:55:15.919Z,5.35
2023-11-23T07:57:44.239Z,5.40
2023-11-23T08:00:11.974Z,5.40
2023-11-23T08:02:38.899Z,5.32
2023-11-23T08:05:06.664Z,5.93
2023-11-23T08:07:33.635Z,31.60
2023-11-23T08:10:00.593Z,37.05
2023-11-23T08:12:27.586Z,22.95
2023-11-23T08:14:54.569Z,10.23
2023-11-23T08:17:21.456Z,5.55
2023-11-23T08:19:48.463Z,5.10
2023-11-23T08:22:15.449Z,4.97
2023-11-23T08:24:42.410Z,4.88
2023-11-23T08:27:09.390Z,4.43
2023-11-23T08:29:36.338Z,4.80
2023-11-23T08:32:03.316Z,5.28
2023-11-23T08:34:30.317Z,4.60
2023-11-23T08:36:57.269Z,4.88
2023-11-23T08:39:24.270Z,4.85
2023-11-23T08:41:51.173Z,4.40
2023-11-23T08:44:18.105Z,5.13
2023-11-23T08:46:45.245Z,5.03
2023-11-23T08:49:12.246Z,4.75
2023-11-23T08:51:39.874Z,4.82
2023-11-23T08:54:07.270Z,4.78
2023-11-23T08:56:34.312Z,4.43
2023-11-23T08:59:01.339Z,4.55
2023-11-23T09:01:28.318Z,4.78
2023-11-23T09:03:56.248Z,4.82
2023-11-23T09:06:23.667Z,5.70
2023-11-23T09:08:50.700Z,4.25
2023-11-23T09:11:17.805Z,4.35
2023-11-23T09:13:44.810Z,4.30
2023-11-23T09:16:11.850Z,4.00
2023-11-23T09:18:39.342Z,4.13
2023-11-23T09:21:07.150Z,3.83
2023-11-23T09:23:34.133Z,3.85
2023-11-23T09:26:01.043Z,4.40
2023-11-23T09:28:28.034Z,4.10
2023-11-23T09:30:54.943Z,3.85
2023-11-23T09:33:23.314Z,4.13
2023-11-23T09:35:51.233Z,4.57
2023-11-23T09:38:18.197Z,4.57
2023-11-23T09:40:45.230Z,4.70
2023-11-23T09:43:12.165Z,4.18
2023-11-23T09:45:39.158Z,4.75
2023-11-23T09:48:06.370Z,4.68
2023-11-23T09:50:37.145Z,4.15
2023-11-23T09:53:07.422Z,4.90
2023-11-23T09:55:34.365Z,5.38
2023-11-23T09:58:01.304Z,5.57
2023-11-23T10:00:28.397Z,4.40
2023-11-23T10:02:55.427Z,4.43
2023-11-23T10:05:23.283Z,4.97
2023-11-23T10:07:50.141Z,3.88
2023-11-23T10:10:17.250Z,4.60
2023-11-23T10:12:44.483Z,4.47
2023-11-23T10:15:11.632Z,3.90
2023-11-23T10:17:42.019Z,4.07
2023-11-23T10:20:13.763Z,3.90
2023-11-23T10:22:47.954Z,4.75
2023-11-23T10:25:30.486Z,6.53
2023-11-23T10:27:57.414Z,5.35
2023-11-23T10:30:26.103Z,4.00
2023-11-23T10:33:00.723Z,3.65
2023-11-23T10:35:42.495Z,3.75
2023-11-23T10:38:09.628Z,4.07
2023-11-23T10:40:36.761Z,4.13
2023-11-23T10:43:04.375Z,3.65
2023-11-23T10:45:33.706Z,4.30
2023-11-23T10:48:02.712Z,3.67
2023-11-23T10:50:29.743Z,3.78
2023-11-23T10:52:56.940Z,3.47
2023-11-23T10:55:24.011Z,3.70
2023-11-23T10:58:20.232Z,4.10
2023-11-23T11:00:47.207Z,4.40
2023-11-23T11:03:14.171Z,4.60
2023-11-23T11:05:41.072Z,4.00
2023-11-23T11:08:08.253Z,4.35
2023-11-23T11:10:49.316Z,4.53
2023-11-23T11:13:17.732Z,4.70
2023-11-23T11:15:58.621Z,5.45
2023-11-23T11:18:29.143Z,6.03
2023-11-23T11:21:14.026Z,6.28
2023-11-23T11:23:42.451Z,5.43
2023-11-23T11:26:24.852Z,4.70
2023-11-23T11:29:02.647Z,4.90
2023-11-23T11:31:42.277Z,4.18
2023-11-23T11:34:22.536Z,3.90
2023-11-23T11:37:01.300Z,3.90
2023-11-23T11:39:32.061Z,4.20
2023-11-23T11:42:00.127Z,4.28
2023-11-23T11:44:27.746Z,5.20
2023-11-23T11:46:54.766Z,4.25
2023-11-23T11:49:21.663Z,4.30
2023-11-23T11:51:48.648Z,3.63
2023-11-23T11:54:15.528Z,4.15
2023-11-23T11:56:42.478Z,4.72
2023-11-23T11:59:12.767Z,4.25
2023-11-23T12:01:39.800Z,4.15
2023-11-23T12:04:06.901Z,4.03
2023-11-23T12:06:33.923Z,4.65
2023-11-23T12:09:00.896Z,4.35
2023-11-23T12:11:30.270Z,4.45
2023-11-23T12:13:59.109Z,4.53
2023-11-23T12:16:36.490Z,4.68
2023-11-23T12:19:19.591Z,4.40
2023-11-23T12:21:56.738Z,4.82
2023-11-23T12:24:24.460Z,4.38
2023-11-23T12:26:54.497Z,4.80
2023-11-23T12:29:26.012Z,4.55
2023-11-23T12:31:53.264Z,4.10
2023-11-23T12:34:20.397Z,4.22
2023-11-23T12:36:48.656Z,4.40
2023-11-23T12:39:15.639Z,4.45
2023-11-23T12:41:49.764Z,4.03
2023-11-23T12:44:21.672Z,3.90
2023-11-23T12:46:48.805Z,4.13
2023-11-23T12:49:15.725Z,4.05
2023-11-23T12:51:42.976Z,4.20
2023-11-23T12:54:10.019Z,4.20
2023-11-23T12:56:37.032Z,4.40
2023-11-23T12:59:03.933Z,3.90
2023-11-23T13:01:30.889Z,3.60
2023-11-23T13:03:58.003Z,3.95
2023-11-23T13:06:24.992Z,4.07
2023-11-23T13:08:51.902Z,4.10
2023-11-23T13:11:18.809Z,4.75
2023-11-23T13:13:45.736Z,4.18
2023-11-23T13:16:12.647Z,4.45
2023-11-23T13:18:58.146Z,5.07
2023-11-23T13:21:27.221Z,5.03
2023-11-23T13:23:54.356Z,4.60
2023-11-23T13:26:21.301Z,4.68
2023-11-23T13:28:48.202Z,4.22
2023-11-23T13:31:15.139Z,4.70
2023-11-23T13:33:42.097Z,4.32
2023-11-23T13:36:09.820Z,5.07
2023-11-23T13:38:36.717Z,4.90
2023-11-23T13:41:03.598Z,5.25
2023-11-23T13:43:30.583Z,4.95
2023-11-23T13:45:57.830Z,8.93
2023-11-23T13:48:24.969Z,10.05
2023-11-23T13:50:51.957Z,6.80
2023-11-23T13:53:18.876Z,5.03
2023-11-23T13:55:45.835Z,5.53
2023-11-23T13:58:12.761Z,5.70
2023-11-23T14:00:39.830Z,5.55
2023-11-23T14:03:06.830Z,5.63
2023-11-23T14:05:33.860Z,5.28
2023-11-23T14:08:00.779Z,5.70
2023-11-23T14:10:27.715Z,5.53
2023-11-23T14:12:54.787Z,5.70
2023-11-23T14:15:21.775Z,5.95
2023-11-23T14:17:51.947Z,5.68
2023-11-23T14:20:18.958Z,5.45
2023-11-23T14:22:46.975Z,5.43
2023-11-23T14:25:14.828Z,5.53
2023-11-23T14:27:41.769Z,5.60
2023-11-23T14:30:09.624Z,5.60
2023-11-23T14:32:36.542Z,5.72
2023-11-23T14:35:03.829Z,5.90
2023-11-23T14:37:30.735Z,6.50
2023-11-23T14:39:57.688Z,6.00
2023-11-23T14:42:24.669Z,6.38
2023-11-23T14:44:51.629Z,6.70
2023-11-23T14:47:18.509Z,5.65
2023-11-23T14:49:45.472Z,5.47
2023-11-23T14:52:12.949Z,5.85
2023-11-23T14:54:40.003Z,6.35
2023-11-23T14:57:07.321Z,6.35
2023-11-23T14:59:37.184Z,6.75
2023-11-23T15:02:04.339Z,6.05
2023-11-23T15:04:31.443Z,6.55
2023-11-23T15:06:58.372Z,6.40
2023-11-23T15:09:26.894Z,6.35
2023-11-23T15:11:54.982Z,6.43
2023-11-23T15:14:21.907Z,6.20
2023-11-23T15:16:49.228Z,6.70
2023-11-23T15:19:16.139Z,6.20
2023-11-23T15:21:43.106Z,6.78
2023-11-23T15:24:13.413Z,6.53
2023-11-23T15:26:40.369Z,6.75
2023-11-23T15:29:07.288Z,6.88
2023-11-23T15:31:34.172Z,6.57
2023-11-23T15:34:01.127Z,6.63
2023-11-23T15:36:28.102Z,7.65
2023-11-23T15:38:55.046Z,10.15
2023-11-23T15:41:21.995Z,10.00
2023-11-23T15:43:48.990Z,11.20
2023-11-23T15:46:15.943Z,11.95
2023-11-23T15:48:42.908Z,10.82
2023-11-23T15:51:09.899Z,14.23
2023-11-23T15:53:36.826Z,17.38
2023-11-23T15:56:03.817Z,15.52
2023-11-23T15:58:30.740Z,15.85
2023-11-23T16:00:57.671Z,19.33
2023-11-23T16:03:24.678Z,34.88
2023-11-23T16:05:51.680Z,38.28
2023-11-23T16:08:18.638Z,35.75
2023-11-23T16:10:45.559Z,32.20
2023-11-23T16:13:12.476Z,31.45
2023-11-23T16:15:39.440Z,31.60
2023-11-23T16:18:06.537Z,29.23
2023-11-23T16:20:33.525Z,28.52
2023-11-23T16:23:00.454Z,29.80
2023-11-23T16:25:27.544Z,27.00
2023-11-23T16:27:54.582Z,25.92
2023-11-23T16:30:21.715Z,25.98
2023-11-23T16:32:49.887Z,27.77
2023-11-23T16:35:16.886Z,23.20
2023-11-23T16:37:43.810Z,20.40
2023-11-23T16:40:11.235Z,17.58
2023-11-23T16:42:42.420Z,14.88
2023-11-23T16:45:10.814Z,15.50
2023-11-23T16:47:37.777Z,15.80
2023-11-23T16:50:05.245Z,16.30
2023-11-23T16:52:32.203Z,16.33
2023-11-23T16:54:59.163Z,14.48
2023-11-23T16:57:26.078Z,13.40
2023-11-23T16:59:53.007Z,12.82
2023-11-23T17:02:20.070Z,13.18
2023-11-23T17:04:47.779Z,11.80
2023-11-23T17:07:15.427Z,10.73
2023-11-23T17:09:42.530Z,9.60
2023-11-23T17:12:09.692Z,9.43
2023-11-23T17:14:36.578Z,7.88
2023-11-23T17:17:06.847Z,7.70
2023-11-23T17:19:33.809Z,8.40
2023-11-23T17:22:07.148Z,6.30
2023-11-23T17:24:34.115Z,7.38
2023-11-23T17:27:01.035Z,8.02
2023-11-23T17:29:27.970Z,7.05
2023-11-23T17:31:54.843Z,7.32
2023-11-23T17:34:21.905Z,7.93
2023-11-23T17:36:48.850Z,7.22
2023-11-23T17:39:15.808Z,10.52
2023-11-23T17:41:48.824Z,9.68
2023-11-23T17:44:15.785Z,9.13
2023-11-23T17:46:42.799Z,9.00
2023-11-23T17:49:09.788Z,9.57
2023-11-23T17:51:37.375Z,8.98
2023-11-23T17:54:04.354Z,9.40
2023-11-23T17:56:33.548Z,11.27
2023-11-23T17:59:08.899Z,12.43
2023-11-23T18:01:47.712Z,12.40
2023-11-23T18:04:14.679Z,12.30
2023-11-23T18:06:41.684Z,11.23
2023-11-23T18:09:09.544Z,11.65
2023-11-23T18:11:37.144Z,10.73
2023-11-23T18:14:04.088Z,11.63
2023-11-23T18:16:31.081Z,10.70
2023-11-23T18:18:58.042Z,12.02
2023-11-23T18:21:25.041Z,11.70
2023-11-23T18:23:51.979Z,13.20
2023-11-23T18:26:18.917Z,14.52
2023-11-23T18:28:45.857Z,13.43
2023-11-23T18:31:12.814Z,13.18
2023-11-23T18:33:39.791Z,13.68
2023-11-23T18:36:07.130Z,14.05
2023-11-23T18:38:35.574Z,11.82
2023-11-23T18:41:03.983Z,43.25
2023-11-23T18:43:31.321Z,25.52
2023-11-23T18:45:58.565Z,19.70
2023-11-23T18:48:25.617Z,15.57
2023-11-23T18:50:52.590Z,13.98
2023-11-23T18:53:19.475Z,13.23
2023-11-23T18:55:47.508Z,13.43
2023-11-23T18:58:14.362Z,14.90
2023-11-23T19:00:41.326Z,14.65
2023-11-23T19:03:08.323Z,15.30
2023-11-23T19:05:35.321Z,14.32
2023-11-23T19:08:02.861Z,14.60
2023-11-23T19:10:29.798Z,14.27
2023-11-23T19:13:03.690Z,14.48
2023-11-23T19:15:33.464Z,14.52
2023-11-23T19:18:00.914Z,17.33
2023-11-23T19:20:28.130Z,15.50
2023-11-23T19:22:55.451Z,15.68
2023-11-23T19:25:26.150Z,14.52
2023-11-23T19:27:56.100Z,15.07
2023-11-23T19:30:24.158Z,15.98
2023-11-23T19:32:52.149Z,15.75
2023-11-23T19:35:23.062Z,17.05
2023-11-23T19:37:50.490Z,16.40
2023-11-23T19:40:17.810Z,15.70
2023-11-23T19:42:45.227Z,15.98
2023-11-23T19:45:13.304Z,16.42
2023-11-23T19:47:40.516Z,16.13
2023-11-23T19:50:08.630Z,17.33
2023-11-23T19:52:35.902Z,16.98
2023-11-23T19:55:02.769Z,16.40
2023-11-23T19:57:29.742Z,16.58
2023-11-23T19:59:56.665Z,17.45
2023-11-23T20:02:23.638Z,17.25
2023-11-23T20:04:50.567Z,17.38
2023-11-23T20:07:17.541Z,16.52
2023-11-23T20:09:44.558Z,16.10
2023-11-23T20:12:11.582Z,14.73
2023-11-23T20:14:38.678Z,15.65
2023-11-23T20:17:05.872Z,16.13
2023-11-23T20:19:32.822Z,16.52
2023-11-23T20:21:59.738Z,16.40
2023-11-23T20:24:26.656Z,16.80
2023-11-23T20:26:53.623Z,16.25
2023-11-23T20:29:20.885Z,16.23
2023-11-23T20:31:47.798Z,17.48
2023-11-23T20:34:14.838Z,21.85
2023-11-23T20:36:44.819Z,19.92
2023-11-23T20:39:11.718Z,18.05
2023-11-23T20:41:38.645Z,20.00
2023-11-23T20:44:06.059Z,18.55
2023-11-23T20:46:33.076Z,23.95
2023-11-23T20:49:02.791Z,18.27
2023-11-23T20:51:31.122Z,15.45
2023-11-23T20:54:00.541Z,14.75
2023-11-23T20:56:27.974Z,16.27
2023-11-23T20:58:55.402Z,15.60
2023-11-23T21:01:22.960Z,16.00
2023-11-23T21:03:50.549Z,16.15
2023-11-23T21:06:18.159Z,15.05
2023-11-23T21:08:45.892Z,14.48
2023-11-23T21:11:12.891Z,17.25
2023-11-23T21:13:39.928Z,18.92
2023-11-23T21:16:07.581Z,19.50
2023-11-23T21:18:34.835Z,18.02
2023-11-23T21:21:01.921Z,15.55
2023-11-23T21:23:28.902Z,15.23
2023-11-23T21:25:55.960Z,15.38
2023-11-23T21:28:22.872Z,15.15
2023-11-23T21:30:49.924Z,16.20
2023-11-23T21:33:16.964Z,16.70
2023-11-23T21:35:44.176Z,15.73
2023-11-23T21:38:11.230Z,16.65
2023-11-23T21:40:38.215Z,17.30
2023-11-23T21:43:05.398Z,16.48
2023-11-23T21:45:32.430Z,17.05
2023-11-23T21:47:59.409Z,15.20
2023-11-23T21:50:26.563Z,16.58
2023-11-23T21:52:55.164Z,16.33
2023-11-23T21:55:22.431Z,16.63
2023-11-23T21:57:49.469Z,17.10
2023-11-23T22:00:16.754Z,17.45
2023-11-23T22:02:43.874Z,18.58
2023-11-23T22:07:49.500Z,19.65
2023-11-23T22:10:16.667Z,19.45
2023-11-23T22:12:43.631Z,20.23
2023-11-23T22:15:11.145Z,20.83
2023-11-23T22:17:38.623Z,20.38
2023-11-23T22:20:06.567Z,20.42
2023-11-23T22:22:33.922Z,21.88
2023-11-23T22:25:01.162Z,21.40
2023-11-23T22:27:28.534Z,23.00
2023-11-23T22:29:55.884Z,20.90
2023-11-23T22:32:22.907Z,19.40
2023-11-23T22:34:50.221Z,19.80
2023-11-23T22:37:17.386Z,17.67
2023-11-23T22:39:44.691Z,18.15
2023-11-23T22:42:12.361Z,16.77
2023-11-23T22:44:39.796Z,17.90
2023-11-23T22:47:07.438Z,17.67
2023-11-23T22:49:34.418Z,16.75
2023-11-23T22:52:01.327Z,16.50
2023-11-23T22:54:28.342Z,15.27
2023-11-23T22:56:55.294Z,14.23
2023-11-23T22:59:22.220Z,15.30
2023-11-23T23:01:49.437Z,14.15
2023-11-23T23:04:16.485Z,14.60
2023-11-23T23:06:43.652Z,14.90
2023-11-23T23:09:10.681Z,13.70
2023-11-23T23:11:37.577Z,15.80
2023-11-23T23:14:05.741Z,14.95
2023-11-23T23:16:32.707Z,15.23
2023-11-23T23:18:59.703Z,16.40
2023-11-23T23:21:26.693Z,16.45
2023-11-23T23:23:53.681Z,17.02
2023-11-23T23:26:20.633Z,16.10
2023-11-23T23:28:47.578Z,16.50
2023-11-23T23:31:14.539Z,15.30
2023-11-23T23:33:41.573Z,15.25
2023-11-23T23:36:09.103Z,16.38
2023-11-23T23:38:36.010Z,16.73
2023-11-23T23:41:02.957Z,16.25
2023-11-23T23:43:29.873Z,15.48
2023-11-23T23:45:56.790Z,16.00
2023-11-23T23:48:23.764Z,16.55
2023-11-23T23:50:50.783Z,16.50
2023-11-23T23:53:17.756Z,16.60
2023-11-23T23:55:44.696Z,14.25
2023-11-23T23:58:11.669Z,15.38
